createdAt,value
2018-07-19T00:00:50.508Z,56.02
2018-07-19T00:03:19.741Z,55.50
2018-07-19T00:05:49.013Z,56.52
2018-07-19T00:08:18.961Z,56.35
2018-07-19T00:10:48.208Z,56.55
2018-07-19T00:13:17.484Z,56.93
2018-07-19T00:15:46.780Z,57.32
2018-07-19T00:18:15.980Z,57.38
2018-07-19T00:20:45.216Z,57.73
2018-07-19T00:23:14.446Z,58.08
2018-07-19T00:25:44.327Z,57.84
2018-07-19T00:28:13.556Z,58.00
2018-07-19T00:30:42.720Z,58.46
2018-07-19T00:33:11.952Z,58.92
2018-07-19T00:35:41.217Z,59.05
2018-07-19T00:38:10.473Z,59.04
2018-07-19T00:40:39.705Z,58.74
2018-07-19T00:43:08.981Z,58.77
2018-07-19T00:45:38.208Z,59.13
2018-07-19T00:48:07.789Z,58.28
2018-07-19T00:50:37.185Z,58.21
2018-07-19T00:53:06.412Z,58.67
2018-07-19T00:55:35.649Z,58.11
2018-07-19T00:58:04.958Z,58.67
2018-07-19T01:00:34.258Z,58.58
2018-07-19T01:03:03.549Z,58.69
2018-07-19T01:05:32.846Z,58.24
2018-07-19T01:08:02.070Z,59.24
2018-07-19T01:10:31.347Z,59.66
2018-07-19T01:13:00.605Z,59.07
2018-07-19T01:15:29.946Z,59.26
2018-07-19T01:17:59.108Z,57.97
2018-07-19T01:20:28.340Z,57.43
2018-07-19T01:22:57.665Z,57.35
2018-07-19T01:25:27.150Z,57.76
2018-07-19T01:27:56.424Z,58.49
2018-07-19T01:30:25.672Z,59.68
2018-07-19T01:32:54.902Z,60.77
2018-07-19T01:35:24.100Z,60.09
2018-07-19T01:37:53.288Z,61.25
2018-07-19T01:40:22.496Z,60.94
2018-07-19T01:42:51.641Z,60.83
2018-07-19T01:45:20.884Z,61.30
2018-07-19T01:47:50.231Z,61.85
2018-07-19T01:50:19.541Z,61.73
2018-07-19T01:52:48.788Z,61.22
2018-07-19T01:55:18.038Z,61.00
2018-07-19T01:57:47.312Z,61.72
2018-07-19T02:00:16.576Z,61.77
2018-07-19T02:02:45.834Z,62.02
2018-07-19T02:05:15.075Z,61.90
2018-07-19T02:07:44.286Z,61.03
2018-07-19T02:10:14.400Z,62.13
2018-07-19T02:12:43.733Z,62.08
2018-07-19T02:15:13.091Z,62.03
2018-07-19T02:17:42.337Z,61.98
2018-07-19T02:20:11.618Z,62.52
2018-07-19T02:22:40.872Z,62.48
2018-07-19T02:25:10.128Z,62.69
2018-07-19T02:27:39.437Z,62.50
2018-07-19T02:30:08.737Z,61.83
2018-07-19T02:32:37.996Z,61.95
2018-07-19T02:35:07.303Z,61.39
2018-07-19T02:37:36.552Z,62.40
2018-07-19T02:40:05.920Z,62.31
2018-07-19T02:42:35.224Z,62.37
2018-07-19T02:45:04.529Z,62.81
2018-07-19T02:47:34.056Z,63.09
2018-07-19T02:50:03.435Z,62.92
2018-07-19T02:52:32.733Z,62.74
2018-07-19T02:55:02.000Z,62.73
2018-07-19T02:57:31.228Z,63.12
2018-07-19T03:00:00.527Z,63.48
2018-07-19T03:02:30.056Z,63.70
2018-07-19T03:04:59.227Z,62.84
2018-07-19T03:07:28.573Z,62.75
2018-07-19T03:09:57.780Z,63.17
2018-07-19T03:12:26.984Z,62.79
2018-07-19T03:14:56.324Z,63.33
2018-07-19T03:17:25.586Z,63.13
2018-07-19T03:19:54.819Z,63.47
2018-07-19T03:22:24.020Z,64.04
2018-07-19T03:24:53.443Z,65.48
2018-07-19T03:27:22.678Z,64.88
2018-07-19T03:29:52.044Z,64.83
2018-07-19T03:32:21.295Z,65.00
2018-07-19T03:34:50.557Z,64.39
2018-07-19T03:37:19.822Z,61.91
2018-07-19T03:39:49.139Z,60.90
2018-07-19T03:42:18.389Z,61.61
2018-07-19T03:44:47.618Z,62.71
2018-07-19T03:47:16.829Z,63.01
2018-07-19T03:49:46.053Z,64.15
2018-07-19T03:52:15.307Z,64.16
2018-07-19T03:54:44.503Z,63.82
2018-07-19T03:57:13.757Z,64.01
2018-07-19T03:59:42.997Z,63.65
2018-07-19T04:02:12.425Z,63.31
2018-07-19T04:04:41.706Z,63.36
2018-07-19T04:07:11.105Z,63.72
2018-07-19T04:09:40.304Z,63.33
2018-07-19T04:12:09.573Z,63.59
2018-07-19T04:14:38.900Z,63.63
2018-07-19T04:17:08.223Z,63.29
2018-07-19T04:19:37.405Z,63.28
2018-07-19T04:22:07.026Z,63.52
2018-07-19T04:24:36.741Z,63.39
2018-07-19T04:27:06.176Z,63.53
2018-07-19T04:29:35.367Z,63.66
2018-07-19T04:32:04.572Z,63.89
2018-07-19T04:34:33.752Z,63.73
2018-07-19T04:37:03.199Z,63.56
2018-07-19T04:39:32.428Z,64.11
2018-07-19T04:42:01.657Z,63.94
2018-07-19T04:44:30.906Z,63.86
2018-07-19T04:47:01.011Z,63.49
2018-07-19T04:49:31.883Z,62.81
2018-07-19T04:52:02.033Z,62.53
2018-07-19T04:54:31.249Z,61.46
2018-07-19T04:57:00.477Z,60.98
2018-07-19T04:59:30.277Z,60.56
2018-07-19T05:01:59.598Z,61.08
2018-07-19T05:04:28.833Z,59.54
2018-07-19T05:06:58.076Z,59.16
2018-07-19T05:09:27.332Z,60.04
2018-07-19T05:11:56.577Z,59.42
2018-07-19T05:14:25.849Z,58.47
2018-07-19T05:16:55.113Z,58.27
2018-07-19T05:19:24.328Z,57.16
2018-07-19T05:21:53.594Z,56.47
2018-07-19T05:24:22.876Z,54.69
2018-07-19T05:26:52.168Z,56.45
2018-07-19T05:29:21.420Z,55.09
2018-07-19T05:31:50.776Z,55.12
2018-07-19T05:34:19.969Z,55.08
2018-07-19T05:36:49.165Z,55.69
2018-07-19T05:39:18.453Z,55.73
2018-07-19T05:41:47.890Z,53.75
2018-07-19T05:44:17.128Z,54.93
2018-07-19T05:46:46.572Z,51.98
2018-07-19T05:49:15.729Z,52.52
2018-07-19T05:51:44.959Z,53.38
2018-07-19T05:54:14.213Z,52.21
2018-07-19T05:56:43.460Z,52.43
2018-07-19T05:59:12.717Z,53.20
2018-07-19T06:01:41.974Z,52.38
2018-07-19T06:04:11.209Z,51.28
2018-07-19T06:06:40.525Z,50.64
2018-07-19T06:09:11.130Z,50.55
2018-07-19T06:11:40.716Z,50.01
2018-07-19T06:14:10.056Z,49.23
2018-07-19T06:16:39.422Z,50.51
2018-07-19T06:19:08.724Z,49.78
2018-07-19T06:21:38.007Z,48.56
2018-07-19T06:24:07.249Z,48.55
2018-07-19T06:26:36.513Z,48.00
2018-07-19T06:29:05.744Z,48.05
2018-07-19T06:31:35.073Z,48.65
2018-07-19T06:34:04.309Z,48.98
2018-07-19T06:36:33.581Z,49.83
2018-07-19T06:39:02.874Z,48.02
2018-07-19T06:41:32.151Z,47.94
2018-07-19T06:44:01.341Z,47.78
2018-07-19T06:46:30.712Z,46.96
2018-07-19T06:48:59.931Z,46.43
2018-07-19T06:51:29.204Z,46.75
2018-07-19T06:53:58.427Z,45.57
2018-07-19T06:56:28.495Z,42.67
2018-07-19T06:58:57.648Z,41.77
2018-07-19T07:01:26.860Z,40.92
2018-07-19T07:03:56.263Z,41.16
2018-07-19T07:06:25.560Z,41.23
2018-07-19T07:08:54.705Z,40.53
2018-07-19T07:11:24.071Z,39.33
2018-07-19T07:13:53.380Z,39.56
2018-07-19T07:16:22.674Z,39.13
2018-07-19T07:18:51.996Z,38.70
2018-07-19T07:21:21.441Z,39.09
2018-07-19T07:23:51.576Z,39.37
2018-07-19T07:26:20.986Z,38.86
2018-07-19T07:28:50.310Z,39.54
2018-07-19T07:31:19.743Z,39.25
2018-07-19T07:33:49.242Z,37.86
2018-07-19T07:36:18.585Z,37.48
2018-07-19T07:38:47.998Z,37.71
2018-07-19T07:41:17.197Z,37.40
2018-07-19T07:43:46.692Z,39.73
2018-07-19T07:46:15.880Z,38.44
2018-07-19T07:48:45.078Z,36.65
2018-07-19T07:51:14.588Z,36.20
2018-07-19T07:53:43.942Z,35.34
2018-07-19T07:56:13.464Z,36.67
2018-07-19T07:58:42.921Z,37.16
2018-07-19T08:01:12.336Z,35.90
2018-07-19T08:03:42.671Z,35.77
2018-07-19T08:06:11.886Z,36.57
2018-07-19T08:08:41.179Z,34.57
2018-07-19T08:11:10.463Z,33.55
2018-07-19T08:13:39.779Z,35.11
2018-07-19T08:16:09.058Z,35.69
2018-07-19T08:18:38.312Z,34.26
2018-07-19T08:21:07.779Z,32.36
2018-07-19T08:23:37.177Z,32.30
2018-07-19T08:26:06.576Z,33.99
2018-07-19T08:28:36.081Z,34.50
2018-07-19T08:31:05.695Z,33.52
2018-07-19T08:33:35.193Z,30.63
2018-07-19T08:36:05.180Z,31.26
2018-07-19T08:38:34.518Z,30.76
2018-07-19T08:41:03.915Z,28.77
2018-07-19T08:43:33.406Z,27.69
2018-07-19T08:46:03.540Z,28.45
2018-07-19T08:48:32.840Z,27.90
2018-07-19T08:51:02.138Z,27.06
2018-07-19T08:53:31.369Z,26.81
2018-07-19T08:58:28.858Z,27.05
2018-07-19T09:00:58.401Z,26.58
2018-07-19T09:03:27.923Z,26.60
2018-07-19T09:05:57.422Z,27.51
2018-07-19T09:08:26.814Z,28.34
2018-07-19T09:10:56.386Z,29.23
2018-07-19T09:13:25.727Z,29.95
2018-07-19T09:15:55.131Z,27.18
2018-07-19T09:18:24.524Z,27.98
2018-07-19T09:20:53.773Z,26.85
2018-07-19T09:23:23.222Z,27.17
2018-07-19T09:25:52.709Z,28.49
2018-07-19T09:28:22.248Z,27.65
2018-07-19T09:30:51.753Z,26.41
2018-07-19T09:33:21.028Z,28.03
2018-07-19T09:35:50.636Z,27.31
2018-07-19T09:38:20.456Z,27.15
2018-07-19T09:40:49.750Z,27.83
2018-07-19T09:43:19.083Z,27.47
2018-07-19T09:45:48.560Z,26.67
2018-07-19T09:48:17.807Z,27.18
2018-07-19T09:50:47.374Z,25.82
2018-07-19T09:53:16.632Z,28.34
2018-07-19T09:55:45.874Z,27.11
2018-07-19T09:58:15.106Z,26.61
2018-07-19T10:00:49.899Z,27.34
2018-07-19T10:03:19.173Z,25.57
2018-07-19T10:05:49.011Z,24.97
2018-07-19T10:08:18.246Z,24.86
2018-07-19T10:10:47.766Z,25.05
2018-07-19T10:13:17.260Z,24.70
2018-07-19T10:15:46.721Z,23.64
2018-07-19T10:18:15.973Z,23.41
2018-07-19T10:20:45.150Z,24.98
2018-07-19T10:23:14.400Z,23.77
2018-07-19T10:25:43.689Z,23.99
2018-07-19T10:28:13.084Z,24.39
2018-07-19T10:30:42.289Z,24.57
2018-07-19T10:33:11.448Z,24.32
2018-07-19T10:35:40.799Z,24.75
2018-07-19T10:38:10.107Z,24.29
2018-07-19T10:40:39.312Z,24.08
2018-07-19T10:43:09.005Z,23.69
2018-07-19T10:45:38.244Z,23.63
2018-07-19T10:48:07.465Z,24.47
2018-07-19T10:50:36.710Z,25.83
2018-07-19T10:53:05.877Z,24.87
2018-07-19T10:55:35.191Z,24.89
2018-07-19T10:58:04.554Z,25.20
2018-07-19T11:00:33.744Z,24.22
2018-07-19T11:03:02.970Z,25.43
2018-07-19T11:05:32.129Z,24.16
2018-07-19T11:08:01.605Z,24.28
2018-07-19T11:10:30.780Z,25.76
2018-07-19T11:13:00.021Z,25.09
2018-07-19T11:15:29.225Z,24.60
2018-07-19T11:17:58.388Z,23.68
2018-07-19T11:20:27.636Z,22.60
2018-07-19T11:22:56.852Z,23.11
2018-07-19T11:25:26.014Z,23.24
2018-07-19T11:27:55.267Z,23.63
2018-07-19T11:30:24.687Z,23.70
2018-07-19T11:32:53.986Z,23.27
2018-07-19T11:35:23.421Z,24.43
2018-07-19T11:37:52.705Z,23.50
2018-07-19T11:40:22.529Z,23.43
2018-07-19T11:42:51.982Z,23.31
2018-07-19T11:45:21.250Z,24.05
2018-07-19T11:47:50.688Z,21.76
2018-07-19T11:50:19.956Z,22.85
2018-07-19T11:52:49.317Z,23.42
2018-07-19T11:55:18.707Z,23.47
2018-07-19T11:57:48.109Z,22.88
2018-07-19T12:00:17.407Z,23.57
2018-07-19T12:02:46.913Z,23.46
2018-07-19T12:05:16.419Z,23.84
2018-07-19T12:07:45.874Z,25.25
2018-07-19T12:10:15.326Z,23.27
2018-07-19T12:12:44.815Z,22.64
2018-07-19T12:15:14.332Z,23.49
2018-07-19T12:17:44.333Z,24.68
2018-07-19T12:20:13.647Z,23.07
2018-07-19T12:22:43.155Z,22.52
2018-07-19T12:25:12.447Z,22.96
2018-07-19T12:27:41.965Z,22.37
2018-07-19T12:30:12.077Z,22.19
2018-07-19T12:32:41.670Z,22.58
2018-07-19T12:35:11.067Z,23.90
2018-07-19T12:37:40.591Z,23.65
2018-07-19T12:40:09.892Z,23.54
2018-07-19T12:42:39.882Z,24.30
2018-07-19T12:45:09.302Z,22.51
2018-07-19T12:47:38.711Z,22.76
2018-07-19T12:50:07.993Z,21.82
2018-07-19T12:52:37.404Z,21.52
2018-07-19T12:55:06.706Z,21.66
2018-07-19T12:57:36.107Z,21.34
2018-07-19T13:00:06.136Z,21.82
2018-07-19T13:02:35.637Z,22.41
2018-07-19T13:05:05.242Z,22.26
2018-07-19T13:07:34.669Z,22.19
2018-07-19T13:10:04.149Z,22.62
2018-07-19T13:12:34.217Z,22.34
2018-07-19T13:15:03.895Z,23.01
2018-07-19T13:17:33.252Z,21.71
2018-07-19T13:20:02.630Z,21.61
2018-07-19T13:22:32.198Z,21.55
2018-07-19T13:25:02.137Z,21.66
2018-07-19T13:27:31.365Z,21.73
2018-07-19T13:30:00.644Z,21.44
2018-07-19T13:32:29.876Z,21.91
2018-07-19T13:34:59.201Z,22.62
2018-07-19T13:37:28.553Z,22.66
2018-07-19T13:39:57.848Z,22.89
2018-07-19T13:42:27.195Z,21.45
2018-07-19T13:44:56.552Z,20.91
2018-07-19T13:47:25.998Z,21.13
2018-07-19T13:49:55.117Z,20.68
2018-07-19T13:53:39.611Z,21.11
2018-07-19T13:56:09.483Z,21.77
2018-07-19T13:58:39.281Z,21.96
2018-07-19T14:01:08.887Z,21.37
2018-07-19T14:03:38.494Z,21.58
2018-07-19T14:06:08.770Z,20.75
2018-07-19T14:08:38.017Z,20.24
2018-07-19T14:11:07.313Z,20.59
2018-07-19T14:13:36.704Z,20.88
2018-07-19T14:16:06.006Z,20.12
2018-07-19T14:18:35.428Z,20.74
2018-07-19T14:21:04.628Z,20.41
2018-07-19T14:23:33.808Z,19.96
2018-07-19T14:26:03.215Z,20.17
2018-07-19T14:28:33.124Z,20.38
2018-07-19T14:31:02.349Z,20.49
2018-07-19T14:33:31.629Z,20.38
2018-07-19T14:36:00.848Z,21.65
2018-07-19T14:38:30.097Z,21.48
2018-07-19T14:40:59.381Z,20.98
2018-07-19T14:43:28.556Z,21.67
2018-07-19T14:45:57.813Z,20.88
2018-07-19T14:48:27.058Z,20.92
2018-07-19T14:50:56.311Z,20.56
2018-07-19T14:53:25.612Z,21.08
2018-07-19T14:55:54.760Z,21.72
2018-07-19T14:58:24.067Z,21.49
2018-07-19T15:00:53.257Z,21.23
2018-07-19T15:03:22.710Z,22.05
2018-07-19T15:05:52.006Z,22.85
2018-07-19T15:08:21.181Z,22.43
2018-07-19T15:10:51.214Z,23.65
2018-07-19T15:13:20.520Z,22.55
2018-07-19T15:15:49.905Z,23.38
2018-07-19T15:18:19.201Z,21.78
2018-07-19T15:20:48.364Z,23.43
2018-07-19T15:23:17.485Z,22.73
2018-07-19T15:25:46.812Z,21.50
2018-07-19T15:28:16.457Z,21.59
2018-07-19T15:30:45.713Z,22.05
2018-07-19T15:33:14.964Z,21.80
2018-07-19T15:35:44.182Z,20.93
2018-07-19T15:38:13.413Z,22.01
2018-07-19T15:40:42.712Z,22.68
2018-07-19T15:43:12.126Z,22.64
2018-07-19T15:45:41.407Z,23.08
2018-07-19T15:48:11.099Z,22.76
2018-07-19T15:50:40.790Z,22.31
2018-07-19T15:53:10.008Z,22.53
2018-07-19T15:55:39.205Z,23.36
2018-07-19T15:58:08.363Z,22.32
2018-07-19T16:00:37.603Z,23.04
2018-07-19T16:03:06.861Z,22.38
2018-07-19T16:05:36.814Z,22.68
2018-07-19T16:08:05.992Z,22.54
2018-07-19T16:10:35.237Z,22.47
2018-07-19T16:13:04.496Z,23.15
2018-07-19T16:15:33.705Z,22.41
2018-07-19T16:18:02.871Z,22.89
2018-07-19T16:20:32.509Z,22.10
2018-07-19T16:23:01.840Z,22.80
2018-07-19T16:25:31.165Z,22.79
2018-07-19T16:28:00.512Z,23.31
2018-07-19T16:30:30.803Z,22.95
2018-07-19T16:33:00.259Z,23.89
2018-07-19T16:35:29.640Z,23.84
2018-07-19T16:37:58.837Z,23.71
2018-07-19T16:40:28.533Z,23.11
2018-07-19T16:42:57.936Z,23.45
2018-07-19T16:45:27.233Z,24.34
2018-07-19T16:47:56.588Z,23.71
2018-07-19T16:50:26.310Z,23.39
2018-07-19T16:52:55.663Z,23.24
2018-07-19T16:55:25.019Z,24.28
2018-07-19T16:57:54.653Z,24.42
2018-07-19T17:00:24.092Z,23.90
2018-07-19T17:02:53.557Z,23.81
2018-07-19T17:05:22.869Z,24.76
2018-07-19T17:07:52.197Z,24.16
2018-07-19T17:10:21.417Z,23.97
2018-07-19T17:12:50.706Z,25.14
2018-07-19T17:15:20.201Z,24.34
2018-07-19T17:17:49.557Z,24.26
2018-07-19T17:20:19.108Z,24.82
2018-07-19T17:22:48.505Z,24.35
2018-07-19T17:25:17.832Z,24.56
2018-07-19T17:27:47.061Z,24.52
2018-07-19T17:30:16.450Z,23.95
2018-07-19T17:32:45.717Z,25.03
2018-07-19T17:35:14.945Z,25.55
2018-07-19T17:37:44.282Z,25.09
2018-07-19T17:40:13.707Z,25.07
2018-07-19T17:42:43.333Z,25.36
2018-07-19T17:45:12.613Z,25.67
2018-07-19T17:47:42.197Z,24.98
2018-07-19T17:50:11.824Z,25.24
2018-07-19T17:52:41.145Z,25.58
2018-07-19T17:55:10.841Z,25.74
2018-07-19T17:57:40.545Z,26.13
2018-07-19T18:00:10.355Z,25.62
2018-07-19T18:02:39.960Z,26.00
2018-07-19T18:05:09.322Z,26.05
2018-07-19T18:07:38.614Z,26.15
2018-07-19T18:10:07.874Z,25.98
2018-07-19T18:12:37.772Z,25.50
2018-07-19T18:15:07.117Z,25.57
2018-07-19T18:17:36.465Z,26.06
2018-07-19T18:20:06.025Z,26.53
2018-07-19T18:22:36.298Z,27.17
2018-07-19T18:25:06.281Z,26.55
2018-07-19T18:27:35.729Z,27.46
2018-07-19T18:30:06.958Z,27.57
2018-07-19T18:32:36.213Z,28.02
2018-07-19T18:35:05.476Z,27.21
2018-07-19T18:37:34.784Z,28.00
2018-07-19T18:40:04.102Z,28.89
2018-07-19T18:42:33.459Z,28.97
2018-07-19T18:45:02.746Z,29.31
2018-07-19T18:47:32.089Z,28.94
2018-07-19T18:50:01.237Z,28.82
2018-07-19T18:52:30.557Z,29.75
2018-07-19T18:54:59.903Z,29.32
2018-07-19T18:57:29.246Z,29.68
2018-07-19T18:59:58.548Z,29.99
2018-07-19T19:02:27.847Z,30.12
2018-07-19T19:04:57.101Z,30.96
2018-07-19T19:07:26.402Z,30.39
2018-07-19T19:09:55.602Z,30.53
2018-07-19T19:12:24.926Z,30.37
2018-07-19T19:14:54.138Z,30.77
2018-07-19T19:17:23.390Z,30.52
2018-07-19T19:19:52.728Z,30.69
2018-07-19T19:22:21.986Z,30.87
2018-07-19T19:24:51.229Z,31.42
2018-07-19T19:27:20.392Z,31.93
2018-07-19T19:29:49.612Z,31.85
2018-07-19T19:32:18.900Z,31.84
2018-07-19T19:34:48.351Z,31.78
2018-07-19T19:37:17.850Z,31.67
2018-07-19T19:39:47.139Z,32.31
2018-07-19T19:42:16.332Z,32.75
2018-07-19T19:44:46.538Z,32.56
2018-07-19T19:47:15.833Z,32.60
2018-07-19T19:49:45.023Z,32.90
2018-07-19T19:52:14.173Z,33.66
2018-07-19T19:54:43.553Z,33.40
2018-07-19T19:57:12.812Z,34.13
2018-07-19T19:59:42.029Z,34.09
2018-07-19T20:02:11.469Z,34.68
2018-07-19T20:04:40.686Z,34.77
2018-07-19T20:07:10.297Z,34.43
2018-07-19T20:09:39.487Z,34.50
2018-07-19T20:12:08.744Z,34.76
2018-07-19T20:14:38.090Z,34.41
2018-07-19T20:17:07.260Z,35.19
2018-07-19T20:19:36.581Z,34.52
2018-07-19T20:22:05.831Z,35.00
2018-07-19T20:24:35.265Z,34.64
2018-07-19T20:27:04.673Z,35.10
2018-07-19T20:29:33.949Z,34.80
2018-07-19T20:32:03.122Z,35.20
2018-07-19T20:34:32.485Z,35.21
2018-07-19T20:37:01.744Z,35.21
2018-07-19T20:39:31.122Z,35.94
2018-07-19T20:42:00.345Z,35.82
2018-07-19T20:44:29.574Z,36.17
2018-07-19T20:46:58.744Z,36.24
2018-07-19T20:49:28.116Z,36.33
2018-07-19T20:51:57.325Z,37.31
2018-07-19T20:54:27.554Z,37.75
2018-07-19T20:56:56.895Z,37.44
2018-07-19T20:59:26.156Z,37.60
2018-07-19T21:01:55.415Z,36.83
2018-07-19T21:04:24.652Z,36.85
2018-07-19T21:06:53.917Z,36.71
2018-07-19T21:09:23.158Z,37.04
2018-07-19T21:11:52.308Z,38.44
2018-07-19T21:14:21.573Z,38.34
2018-07-19T21:16:51.271Z,38.69
2018-07-19T21:19:20.628Z,38.87
2018-07-19T21:21:49.800Z,38.50
2018-07-19T21:24:19.062Z,38.60
2018-07-19T21:26:48.205Z,39.20
2018-07-19T21:29:17.562Z,39.76
2018-07-19T21:31:46.866Z,41.33
2018-07-19T21:34:16.043Z,41.25
2018-07-19T21:36:45.426Z,40.64
2018-07-19T21:39:14.644Z,40.50
2018-07-19T21:41:43.792Z,40.81
2018-07-19T21:44:13.263Z,40.56
2018-07-19T21:46:42.388Z,40.44
2018-07-19T21:49:11.510Z,39.85
2018-07-19T21:51:40.760Z,41.61
2018-07-19T21:54:10.038Z,42.71
2018-07-19T21:56:39.231Z,44.05
2018-07-19T21:59:08.418Z,43.19
2018-07-19T22:01:42.930Z,43.27
2018-07-19T22:04:12.363Z,41.59
2018-07-19T22:06:41.774Z,41.57
2018-07-19T22:09:12.525Z,41.43
2018-07-19T22:11:41.751Z,40.55
2018-07-19T22:14:11.075Z,42.85
2018-07-19T22:16:40.921Z,42.09
2018-07-19T22:19:10.146Z,42.40
2018-07-19T22:21:39.409Z,42.72
2018-07-19T22:24:08.590Z,43.15
2018-07-19T22:26:37.723Z,42.92
2018-07-19T22:29:06.868Z,42.29
2018-07-19T22:31:36.029Z,42.94
2018-07-19T22:34:05.225Z,42.36
2018-07-19T22:36:34.431Z,42.87
2018-07-19T22:39:03.890Z,44.09
2018-07-19T22:41:33.028Z,43.68
2018-07-19T22:44:02.205Z,44.52
2018-07-19T22:46:31.364Z,44.73
2018-07-19T22:49:00.796Z,44.74
2018-07-19T22:51:30.020Z,44.75
2018-07-19T22:53:59.160Z,44.32
2018-07-19T22:56:28.380Z,45.52
2018-07-19T22:58:57.530Z,46.30
2018-07-19T23:01:26.704Z,45.84
2018-07-19T23:03:55.856Z,45.57
2018-07-19T23:06:25.027Z,47.13
2018-07-19T23:08:55.280Z,46.80
2018-07-19T23:11:24.587Z,46.21
2018-07-19T23:13:53.708Z,47.15
2018-07-19T23:16:23.069Z,47.02
2018-07-19T23:18:52.185Z,46.49
2018-07-19T23:21:21.449Z,45.68
2018-07-19T23:23:50.611Z,46.30
2018-07-19T23:26:19.793Z,47.17
2018-07-19T23:28:49.171Z,46.33
2018-07-19T23:31:18.432Z,46.50
2018-07-19T23:33:47.641Z,46.60
2018-07-19T23:36:52.777Z,47.52
2018-07-19T23:39:39.632Z,47.80
2018-07-19T23:42:15.134Z,47.64
2018-07-19T23:44:49.033Z,46.97
2018-07-19T23:47:22.048Z,46.63
2018-07-19T23:49:51.461Z,46.74
2018-07-19T23:52:20.584Z,46.70
2018-07-19T23:54:49.845Z,46.73
2018-07-19T23:57:19.093Z,46.47
2018-07-19T23:59:48.273Z,46.61
